Flight Track Log - Related Links

Times and Time Zones

All times are in EDT time to prevent confusion due to time zone crossing. See the SWA3143 flight status page for this flight to view local times or setup timezone preferences in your user account.

Time Position Orientation Groundspeed Altitude Reporting Facility
EDT Latitude Longitude Course Direction KTS MPH feet Rate Location/Type
Sat 05:25:15 PM 31.8931 -102.0181 83° East 305 351 10,900  Level Fort Worth Center
Sat 05:26:15 PM 31.9139 -101.9017 78° East 331 381 14,500 3,150 Climbing Fort Worth Center
Sat 05:27:15 PM 31.9369 -101.7828 77° East 357 411 17,200 2,950 Climbing Fort Worth Center
Sat 05:28:00 PM 32.0702 -101.5155 83° East  Level FlightAware Approximate
Sat 05:28:15 PM 31.9536 -101.6564 81° East 380 437 20,400  Level Fort Worth Center
Sat 05:29:00 PM 32.0833 -101.3849 83° East  Level FlightAware Approximate
Sat 05:29:15 PM 31.9750 -101.5178 80° East 403 464 22,600  Level Fort Worth Center
Sat 05:30:00 PM 32.0963 -101.2544 83° East  Level FlightAware Approximate
Sat 05:30:15 PM 31.9986 -101.3719 79° East 429 494 24,900  Level Fort Worth Center
Sat 05:31:15 PM 32.0239 -101.2236 79° East 449 517 26,800 1,850 Climbing Fort Worth Center
Sat 05:32:15 PM 32.0475 -101.0628 80° East 477 549 28,600 1,900 Climbing Fort Worth Center
Sat 05:33:15 PM 32.0733 -100.8872 80° East 489 563 30,600 1,700 Climbing Fort Worth Center
Sat 05:34:15 PM 32.1008 -100.7217 79° East 500 575 32,000 1,250 Climbing Fort Worth Center
Sat 05:35:15 PM 32.1239 -100.5508 81° East 511 588 33,100 550 Climbing Fort Worth Center
Sat 05:36:15 PM 32.1492 -100.3775 80° East 524 603 33,100  Level Fort Worth Center
Sat 05:37:15 PM 32.1761 -100.2042 80° East 529 609 33,100  Level Fort Worth Center
Sat 05:38:15 PM 32.2028 -100.0256 80° East 540 621 33,100  Level Fort Worth Center
Sat 05:39:15 PM 32.2272 -99.8494 81° East 540 621 33,100  Level Fort Worth Center
Sat 05:40:15 PM 32.2306 -99.6703 89° East 540 621 33,100  Level Fort Worth Center
Sat 05:41:15 PM 32.2233 -99.4908 93° East 540 621 33,100  Level Fort Worth Center
Sat 05:42:15 PM 32.2178 -99.3139 92° East 540 621 33,100  Level Fort Worth Center
Sat 05:43:15 PM 32.2119 -99.1372 92° East 540 621 33,100 -50 Level Fort Worth Center
Sat 05:44:15 PM 32.2058 -98.9578 92° East 540 621 33,000 -600 Descending Fort Worth Center
Sat 05:45:15 PM 32.1975 -98.7858 93° East 540 621 31,900 -1,700 Descending Fort Worth Center
Sat 05:46:15 PM 32.2139 -98.6117 84° East 530 610 29,600 -2,550 Descending Fort Worth Center
Sat 05:47:15 PM 32.2528 -98.4722 72° East 513 590 26,800 -2,700 Descending Fort Worth Center
Sat 05:48:15 PM 32.2872 -98.3153 75° East 499 574 24,200 -2,600 Descending Fort Worth Center
Sat 05:49:15 PM 32.3239 -98.1558 75° East 465 535 21,600 -2,400 Descending Fort Worth Center
Sat 05:50:15 PM 32.3494 -98.0306 76° East 440 506 19,400 -2,300 Descending Fort Worth Center
Sat 05:51:15 PM 32.3858 -97.8833 74° East 423 487 17,000 -2,250 Descending Fort Worth Center
Sat 05:52:15 PM 32.4111 -97.7703 75° East 410 472 14,900 -2,250 Descending Fort Worth Center
Sat 05:53:15 PM 32.4386 -97.6350 76° East 386 444 12,500 -1,900 Descending Fort Worth Center
Sat 05:54:15 PM 32.4639 -97.5317 74° East 367 422 11,100 -750 Descending Fort Worth Center
Sat 05:55:15 PM 32.5306 -97.4331 51° Northeast 343 395 11,000 -100 Descending Fort Worth Center
Sat 05:56:15 PM 32.5892 -97.3617 46° Northeast 332 382 10,900  Descending Fort Worth Center
Sat 05:57:15 PM 32.6517 -97.2900 44° Northeast 295 339 11,000 50 Climbing Fort Worth Center
Sat 05:58:15 PM 32.7081 -97.2183 47° Northeast 303 349 11,000 -750 Level Fort Worth Center
Sat 05:59:15 PM 32.7892 -97.1689 27° Northeast 298 343 9,500 -1,600 Descending Fort Worth Center
Sat 06:00:15 PM 32.8728 -97.1783 355° North 292 336 7,800 -1,800 Descending Fort Worth Center
Sat 06:01:15 PM 32.9144 -97.1042 56° Northeast 242 278 5,900 -1,837 Descending Fort Worth Center
Sat 06:01:53 PM 32.9333 -97.0500 67° East 261 300 4,800 -1,212 Descending Dallas / Fort Worth TRACON
Sat 06:02:54 PM 32.9500 -96.9833 73° East 225 259 3,900 -1,240 Descending Dallas / Fort Worth TRACON
Sat 06:03:54 PM 32.9167 -96.9333 128° Southeast 177 204 2,300 -1,240 Descending Dallas / Fort Worth TRACON
Sat 06:04:55 PM 32.8833 -96.9000 140° Southeast 145 167 1,400 -885 Descending Dallas / Fort Worth TRACON
Sat 06:07:00 PM 32.8471 -96.8518 116° Southeast  Level Estimated
Sat 06:14:00 PM 32.8471 -96.8518 116° Southeast  Level Estimated

Login

Don't have an account? Register now (free) for customized features, flight alerts, and more!